Terminal Aerodrome Forecast
Issued by NWS Quad Cities IA IL

Home | Current Version | Previous Version | Text Only | Print | Product List | Glossary On
Versions: 1 2 3 4 5 6 7 8 9 10 11 12 13 14 15 16 17 18 19 20 21 22 23 24 25 26 27 28 29 30 31 32 33 34 35 36
000
FTUS43 KDVN 291259 AAA
TAFDBQ
TAF AMD
KDBQ 291259Z 2913/3012 28012KT P6SM BKN012
     FM291340 27013KT P6SM SCT012
     FM291600 27013G17KT P6SM SCT040
     FM300000 24005KT P6SM FEW250=

USA.gov is the U.S. government's official web portal to all federal, state and local government web resources and services.